createdAt,value
2022-08-31T14:01:42.268Z,28.09
2022-08-31T14:04:52.558Z,28.13
2022-08-31T14:07:26.935Z,28.30
2022-08-31T14:10:00.014Z,28.33
2022-08-31T14:12:38.392Z,28.29
2022-08-31T14:15:19.646Z,28.27
2022-08-31T14:21:19.035Z,28.42
2022-08-31T14:23:45.458Z,28.33
2022-08-31T14:26:17.943Z,28.31
2022-08-31T14:28:49.282Z,28.29
2022-08-31T14:31:27.195Z,28.32
2022-08-31T14:33:58.168Z,28.25
2022-08-31T14:36:28.393Z,28.26
2022-08-31T14:41:20.967Z,28.68
2022-08-31T14:43:51.092Z,28.66
2022-08-31T14:46:30.004Z,28.67
2022-08-31T14:49:00.057Z,28.74
2022-08-31T14:51:30.245Z,28.70
2022-08-31T14:54:00.741Z,28.76
2022-08-31T14:56:35.202Z,28.78
2022-08-31T14:59:14.722Z,28.80
2022-08-31T15:01:47.046Z,28.81
2022-08-31T15:04:20.284Z,28.80
2022-08-31T15:06:56.115Z,28.83
2022-08-31T15:09:26.486Z,28.80
2022-08-31T15:11:56.852Z,28.82
2022-08-31T15:14:27.814Z,28.84
2022-08-31T15:17:03.214Z,28.84
2022-08-31T15:19:33.419Z,28.85
2022-08-31T15:22:07.686Z,28.85
2022-08-31T15:24:40.744Z,28.88
2022-08-31T15:27:14.863Z,28.88
2022-08-31T15:29:51.690Z,28.89
2022-08-31T15:32:22.880Z,28.85
2022-08-31T15:34:59.890Z,28.89
2022-08-31T15:37:34.951Z,28.84
2022-08-31T15:40:07.378Z,28.83
2022-08-31T15:42:41.641Z,28.86
2022-08-31T15:45:12.417Z,28.83
2022-08-31T15:48:01.463Z,28.82
2022-08-31T15:50:32.606Z,28.83
2022-08-31T15:53:09.456Z,28.79
2022-08-31T15:55:42.484Z,28.79
2022-08-31T15:58:13.071Z,28.78
2022-08-31T16:00:44.043Z,28.80
2022-08-31T16:03:14.710Z,28.74
2022-08-31T16:05:45.639Z,28.74
2022-08-31T16:08:16.533Z,28.74
2022-08-31T16:10:49.183Z,28.74
2022-08-31T16:13:19.875Z,28.71
2022-08-31T16:15:55.009Z,28.70
2022-08-31T16:18:25.562Z,28.69
2022-08-31T16:20:55.681Z,28.73
2022-08-31T16:23:26.938Z,28.74
2022-08-31T16:25:56.668Z,28.77
2022-08-31T16:28:26.640Z,28.75
2022-08-31T16:30:58.727Z,28.77
2022-08-31T16:33:29.312Z,28.73
2022-08-31T16:35:59.436Z,28.74
2022-08-31T16:38:29.376Z,28.76
2022-08-31T16:41:04.520Z,28.72
2022-08-31T16:43:34.736Z,28.72
2022-08-31T16:46:24.237Z,28.77
2022-08-31T16:49:15.925Z,28.72
2022-08-31T16:51:48.628Z,28.77
2022-08-31T16:54:21.070Z,28.75
2022-08-31T16:56:51.962Z,28.76
2022-08-31T16:59:22.587Z,28.76
2022-08-31T17:01:53.016Z,28.76
2022-08-31T17:07:18.166Z,28.76
2022-08-31T17:09:48.822Z,28.72
2022-08-31T17:12:24.564Z,28.71
2022-08-31T17:14:55.228Z,28.69
2022-08-31T17:17:28.242Z,28.71
2022-08-31T17:19:58.371Z,28.70
2022-08-31T17:22:33.055Z,28.65
2022-08-31T17:25:06.181Z,28.66
2022-08-31T17:27:37.667Z,28.66
2022-08-31T17:30:11.007Z,28.69
2022-08-31T17:32:45.123Z,28.68
2022-08-31T17:35:20.318Z,28.69
2022-08-31T17:37:52.109Z,28.73
2022-08-31T17:40:22.408Z,28.69
2022-08-31T17:42:59.279Z,28.70
2022-08-31T17:45:30.004Z,28.75
2022-08-31T17:48:00.017Z,28.72
2022-08-31T17:50:29.992Z,28.75
2022-08-31T17:53:00.088Z,28.74
2022-08-31T17:55:32.038Z,28.77
2022-08-31T17:58:02.136Z,28.74
2022-08-31T18:00:34.761Z,28.74
2022-08-31T18:03:04.839Z,28.73
2022-08-31T18:05:34.994Z,28.74
2022-08-31T18:08:05.416Z,28.74
2022-08-31T18:10:35.820Z,28.74
2022-08-31T18:13:05.903Z,28.73
2022-08-31T18:15:37.311Z,28.74
2022-08-31T18:18:07.273Z,28.74
2022-08-31T18:20:41.495Z,28.74
2022-08-31T18:23:12.656Z,28.74
2022-08-31T18:25:43.077Z,28.72
2022-08-31T18:28:14.551Z,28.71
2022-08-31T18:30:44.343Z,28.72
2022-08-31T18:33:15.076Z,28.72
2022-08-31T18:35:48.908Z,28.73
2022-08-31T18:38:19.635Z,28.74
2022-08-31T18:44:12.273Z,28.74
2022-08-31T18:46:42.447Z,28.75
2022-08-31T18:49:12.832Z,28.75
2022-08-31T18:51:45.216Z,28.70
2022-08-31T18:54:17.256Z,28.74
2022-08-31T18:56:47.808Z,28.72
2022-08-31T18:59:19.990Z,28.72
2022-08-31T19:01:50.305Z,28.72
2022-08-31T19:04:22.027Z,28.74
2022-08-31T19:06:52.857Z,28.75
2022-08-31T19:09:25.510Z,28.71
2022-08-31T19:12:04.580Z,28.70
2022-08-31T19:14:39.829Z,28.70
2022-08-31T19:17:10.350Z,28.74
2022-08-31T19:19:40.613Z,28.71
2022-08-31T19:22:10.921Z,28.74
2022-08-31T19:24:42.257Z,28.72
2022-08-31T19:27:12.459Z,28.70
2022-08-31T19:29:44.309Z,28.69
2022-08-31T19:32:15.971Z,28.69
2022-08-31T19:34:46.534Z,28.66
2022-08-31T19:37:17.791Z,28.67
2022-08-31T19:39:48.351Z,28.68
2022-08-31T19:42:18.581Z,28.65
2022-08-31T19:45:22.900Z,28.66
2022-08-31T19:47:40.850Z,28.69
2022-08-31T19:50:14.289Z,28.69
2022-08-31T19:52:45.712Z,28.67
2022-08-31T19:55:16.138Z,28.65
2022-08-31T19:57:46.135Z,28.64
2022-08-31T20:00:18.144Z,28.65
2022-08-31T20:02:48.399Z,28.63
2022-08-31T20:05:18.685Z,28.66
2022-08-31T20:07:48.944Z,28.65
2022-08-31T20:10:20.205Z,28.62
2022-08-31T20:12:50.390Z,28.64
2022-08-31T20:15:22.705Z,28.64
2022-08-31T20:17:58.407Z,28.64
2022-08-31T20:20:31.125Z,28.64
2022-08-31T20:23:01.734Z,28.63
2022-08-31T20:25:31.804Z,28.62
2022-08-31T20:28:03.173Z,28.62
2022-08-31T20:30:38.750Z,28.64
2022-08-31T20:33:10.449Z,28.62
2022-08-31T20:35:49.414Z,28.61
2022-08-31T20:38:20.623Z,28.62
2022-08-31T20:40:55.225Z,28.62
2022-08-31T20:43:27.163Z,28.60
2022-08-31T20:45:57.466Z,28.60
2022-08-31T20:48:45.819Z,28.60
2022-08-31T20:51:22.207Z,28.59
2022-08-31T20:53:52.387Z,28.59
2022-08-31T20:56:28.285Z,28.59
2022-08-31T20:58:58.342Z,28.59
2022-08-31T21:01:29.450Z,28.56
2022-08-31T21:03:59.507Z,28.59
2022-08-31T21:06:29.794Z,28.56
2022-08-31T21:09:00.242Z,28.55
2022-08-31T21:11:30.760Z,28.57
2022-08-31T21:14:02.307Z,28.57
2022-08-31T21:16:34.321Z,28.55
2022-08-31T21:19:10.899Z,28.51
2022-08-31T21:21:45.900Z,28.52
2022-08-31T21:24:19.248Z,28.50
2022-08-31T21:26:50.408Z,28.50
2022-08-31T21:29:21.876Z,28.50
2022-08-31T21:32:02.584Z,28.49
2022-08-31T21:34:34.016Z,28.48
2022-08-31T21:37:04.223Z,28.46
2022-08-31T21:39:37.119Z,28.45
2022-08-31T21:42:07.543Z,28.46
2022-08-31T21:44:39.589Z,28.44
2022-08-31T21:47:12.008Z,28.42
2022-08-31T21:49:42.398Z,28.43
2022-08-31T21:52:13.963Z,28.40
2022-08-31T21:54:46.864Z,28.39
2022-08-31T21:57:17.741Z,28.39
2022-08-31T21:59:47.936Z,28.40
2022-08-31T22:02:18.101Z,28.43
2022-08-31T22:04:49.071Z,28.42
2022-08-31T22:07:19.448Z,28.42
2022-08-31T22:09:49.410Z,28.48
2022-08-31T22:12:20.374Z,28.47
2022-08-31T22:14:52.493Z,28.47
2022-08-31T22:17:36.977Z,28.47
2022-08-31T22:20:16.707Z,28.49
2022-08-31T22:22:47.172Z,28.49
2022-08-31T22:25:18.503Z,28.48
2022-08-31T22:27:49.012Z,28.49
2022-08-31T22:30:19.155Z,28.48
2022-08-31T22:32:50.214Z,28.55
2022-08-31T22:35:20.476Z,28.53
2022-08-31T22:37:50.800Z,28.49
2022-08-31T22:40:23.951Z,28.50
2022-08-31T22:42:56.730Z,28.53
2022-08-31T22:45:27.562Z,28.50
2022-08-31T22:47:57.628Z,28.51
2022-08-31T22:50:27.670Z,28.59
2022-08-31T22:52:57.847Z,28.54
2022-08-31T22:55:27.879Z,28.53
